• Join FlightAware (Why Join?)
  • Login
  • US Flag 
 
11:02PM EST


 

Airport Tracker/Info


-or-


 

Live Flight TrackerFlight Track Log ✈ ASA65 ✈ 24-Aug-2013 ✈ PAJN / JNU - PANC

Flight Track Log - Related Links

Times and Time Zones

All times are in EDT time to prevent confusion due to time zone crossing. See the ASA65 flight status page for this flight to view local times or setup timezone preferences in your user account.

Time Position Orientation Groundspeed Altitude Reporting Facility
EDT Latitude Longitude Course Direction KTS MPH feet Rate Location/Type
04:43PM 58.2833 -134.4167 134° Southeast 210 242 5,700  Level Anchorage Center
04:44PM 58.2333 -134.3167 134° Southeast 250 288 8,300 2,520 Climbing Anchorage Center
04:45PM 58.6248 -135.5814 297° West  Level FlightAware Approximate
04:45PM 58.1833 -134.3333 190° South 260 299 10,800  Level Anchorage Center
04:46PM 58.6694 -135.7538 297° West  Level FlightAware Approximate
04:46PM 58.1833 -134.4833 270° West 340 391 12,000  Level Anchorage Center
04:47PM 58.7138 -135.9267 296° West  Level FlightAware Approximate
04:48PM 58.2833 -134.8000 301° West 380 437 17,500  Level Anchorage Center
04:49PM 58.3667 -134.9167 324° Northwest 390 449 20,100 2,460 Climbing Anchorage Center
04:50PM 58.4333 -135.1000 305° West 400 460 22,500 2,040 Climbing Anchorage Center
04:51PM 58.4833 -135.2833 298° West 410 472 24,200 1,800 Climbing Anchorage Center
04:52PM 58.5500 -135.4667 305° West 420 483 26,100 1,560 Climbing Anchorage Center
04:53PM 58.6167 -135.6667 303° West 430 495 27,400 1,260 Climbing Anchorage Center
04:54PM 58.6833 -135.8667 303° West 440 506 28,700 1,860 Climbing Anchorage Center
04:55PM 58.7500 -136.0667 303° West 430 495 31,200 2,040 Climbing Anchorage Center
04:56PM 58.8000 -136.2500 298° West 410 472 32,800 1,380 Climbing Anchorage Center
04:57PM 58.8333 -136.4333 289° West 400 460 34,000 600 Climbing Anchorage Center
04:58PM 58.8833 -136.6333 296° West 400 460 34,000  Level Anchorage Center
04:59PM 58.9333 -136.8333 296° West 410 472 34,000  Level Anchorage Center
05:00PM 58.9667 -137.0333 288° West 400 460 34,000  Level Anchorage Center
05:01PM 59.0167 -137.2333 296° West 400 460 34,000  Level Anchorage Center
05:02PM 59.0667 -137.4333 296° West 400 460 34,000  Level Anchorage Center
05:03PM 59.1000 -137.6333 288° West 400 460 34,000  Level Anchorage Center
05:04PM 59.1500 -137.8333 296° West 410 472 34,000  Level Anchorage Center
05:05PM 59.1833 -138.0333 288° West 400 460 34,000  Level Anchorage Center
05:06PM 59.2333 -138.2333 296° West 400 460 34,000  Level Anchorage Center
05:07PM 59.2833 -138.4333 296° West 400 460 34,000  Level Anchorage Center
05:08PM 59.3167 -138.6333 288° West 400 460 34,000  Level Anchorage Center
05:09PM 59.3667 -138.8333 296° West 410 472 34,000  Level Anchorage Center
05:10PM 59.4000 -139.0500 287° West 410 472 34,000  Level Anchorage Center
05:11PM 59.4500 -139.2500 296° West 400 460 34,000  Level Anchorage Center
05:12PM 59.4833 -139.4500 288° West 400 460 34,000  Level Anchorage Center
05:13PM 59.5167 -139.6667 287° West 410 472 34,000  Level Anchorage Center
05:14PM 59.5667 -139.8667 296° West 410 472 34,000  Level Anchorage Center
05:15PM 59.6000 -140.0500 290° West 400 460 34,000  Level Anchorage Center
05:16PM 59.6333 -140.2667 287° West 410 472 34,000  Level Anchorage Center
05:17PM 59.6833 -140.4833 295° West 410 472 34,000  Level Anchorage Center
05:18PM 59.7167 -140.6833 288° West 410 472 34,000  Level Anchorage Center
05:19PM 59.7667 -140.9000 295° West 420 483 34,000  Level Anchorage Center
05:20PM 59.8000 -141.1167 287° West 410 472 34,000  Level Anchorage Center
05:21PM 59.8500 -141.3500 293° West 420 483 34,000  Level Anchorage Center
05:22PM 59.8833 -141.5667 287° West 420 483 34,000  Level Anchorage Center
05:23PM 59.9167 -141.7833 287° West 420 483 34,000  Level Anchorage Center
05:24PM 59.9500 -142.0000 287° West 410 472 34,000  Level Anchorage Center
05:25PM 60.0000 -142.2167 295° West 410 472 34,000  Level Anchorage Center
05:26PM 60.0333 -142.4333 287° West 420 483 34,000  Level Anchorage Center
05:27PM 60.0667 -142.6500 287° West 400 460 34,000  Level Anchorage Center
05:28PM 60.1000 -142.8667 287° West 410 472 34,000  Level Anchorage Center
05:29PM 60.1500 -143.1000 293° West 420 483 34,000  Level Anchorage Center
05:30PM 60.1833 -143.3333 286° West 420 483 34,000  Level Anchorage Center
05:31PM 60.2167 -143.5667 286° West 420 483 34,000  Level Anchorage Center
05:32PM 60.2500 -143.8000 286° West 430 495 34,000  Level Anchorage Center
05:33PM 60.2833 -144.0167 287° West 420 483 34,000  Level Anchorage Center
05:34PM 60.3333 -144.2500 293° West 430 495 34,000  Level Anchorage Center
05:35PM 60.3667 -144.4833 286° West 420 483 34,000  Level Anchorage Center
05:36PM 60.4000 -144.7000 287° West 420 483 34,000  Level Anchorage Center
05:37PM 60.4333 -144.9333 286° West 420 483 34,000  Level Anchorage Center
05:38PM 60.4667 -145.1667 286° West 420 483 34,000  Level Anchorage Center
05:39PM 60.5000 -145.3833 287° West 420 483 34,000  Level Anchorage Center
05:40PM 60.5333 -145.6167 286° West 410 472 34,000  Level Anchorage Center
05:41PM 60.5667 -145.8333 287° West 410 472 34,000  Level Anchorage Center
05:42PM 60.5833 -146.0667 278° West 410 472 34,000  Level Anchorage Center
05:43PM 60.6167 -146.3000 286° West 410 472 34,000  Level Anchorage Center
05:44PM 60.6500 -146.5167 288° West 420 483 34,000  Level Anchorage Center
05:45PM 60.6833 -146.7500 286° West 420 483 34,000  Level Anchorage Center
05:46PM 60.7167 -146.9833 286° West 410 472 34,000  Level Anchorage Center
05:47PM 60.7333 -147.2000 279° West 420 483 34,000 -1,320 Level Anchorage Center
05:48PM 60.7667 -147.4667 284° West 420 483 31,400 -2,700 Descending Anchorage Center
05:49PM 60.8000 -147.6833 288° West 410 472 28,600 -2,640 Descending Anchorage Center
05:50PM 60.8333 -147.8833 289° West 400 460 26,100 -2,280 Descending Anchorage Center
05:51PM 60.8500 -148.1000 279° West 390 449 24,100 -2,400 Descending Anchorage Center
05:52PM 60.8833 -148.3000 289° West 360 414 21,300 -2,460 Descending Anchorage Center
05:53PM 60.9000 -148.5167 279° West 350 403 19,200 -2,280 Descending Anchorage Center
05:54PM 60.9167 -148.7000 281° West 340 391 16,800 -2,400 Descending Anchorage Center
05:55PM 60.9500 -148.9000 289° West 340 391 14,500 -2,340 Descending Anchorage Center
05:57PM 60.9799 -149.2157 281° West  Level FlightAware Approximate
06:04PM 61.1565 -150.0291 65° Northeast  Level FlightAware Approximate
06:05PM 61.1667 -149.9833 65° Northeast  Level FlightAware Approximate
06:06PM 61.1741 -149.9982 65° Northeast  Level Estimated
06:07PM 61.1741 -149.9982 65° Northeast  Level Estimated
06:08PM 61.1741 -149.9982 65° Northeast  Level Estimated
06:09PM 61.1741 -149.9982 65° Northeast  Level Estimated
06:10PM 61.1741 -149.9982 65° Northeast  Level Estimated
06:11PM 61.1741 -149.9982 65° Northeast  Level Estimated
06:12PM 61.1741 -149.9982 65° Northeast  Level Estimated
06:13PM 61.1741 -149.9982 65° Northeast  Level Estimated
06:14PM 61.1741 -149.9982 65° Northeast  Level Estimated
06:15PM 61.1741 -149.9982 65° Northeast  Level Estimated
06:16PM 61.1741 -149.9982 65° Northeast  Level Estimated
06:17PM 61.1741 -149.9982 65° Northeast  Level Estimated
06:18PM 61.1741 -149.9982 65° Northeast  Level Estimated
06:19PM 61.1741 -149.9982 65° Northeast  Level Estimated
06:20PM 61.1741 -149.9982 65° Northeast  Level Estimated